Time;durP1;ratioP1;P1;durP2;ratioP2;P2;SDS_P1;SDS_P2;PMS_P1;PMS_P2;Temp;Humidity;BMP_temperature;BMP_pressure;BME280_temperature;BME280_humidity;BME280_pressure;Samples;Min_cycle;Max_cycle;Signal;HPM_P1;HPM_P2
2022/10/04 00:02:23;;;;;;;21.55;7.55;;;12.70;99.90;;;;;;6245567;23;20024;-81
2022/10/04 00:05:00;;;;;;;20.95;7.45;;;12.70;99.90;;;;;;6209543;23;20330;-82
2022/10/04 00:07:33;;;;;;;16.50;7.57;;;12.70;99.90;;;;;;6217454;23;20384;-83
2022/10/04 00:10:04;;;;;;;14.57;7.05;;;12.70;99.90;;;;;;6217340;23;20016;-84
2022/10/04 00:12:39;;;;;;;18.67;8.32;;;12.70;99.90;;;;;;6191759;23;20028;-82
2022/10/04 00:15:17;;;;;;;22.42;9.95;;;12.70;99.90;;;;;;6217394;23;20038;-82
2022/10/04 00:17:43;;;;;;;16.35;7.40;;;12.70;99.90;;;;;;6218533;23;20028;-82
2022/10/04 00:20:52;;;;;;;16.20;7.38;;;12.70;99.90;;;;;;6217439;23;20032;-82
2022/10/04 00:23:23;;;;;;;19.05;8.02;;;12.70;99.90;;;;;;6214205;23;20063;-81
2022/10/04 00:25:51;;;;;;;19.77;8.30;;;12.70;99.90;;;;;;6218388;23;20028;-83
2022/10/04 01:05:14;;;;;;;20.08;9.00;;;12.60;99.90;;;;;;6244312;23;20380;-82
2022/10/04 01:07:46;;;;;;;23.35;9.60;;;12.60;99.90;;;;;;6243734;23;20519;-80
2022/10/04 01:10:24;;;;;;;26.50;9.20;;;12.60;99.90;;;;;;6216885;23;20063;-81
2022/10/04 01:13:37;;;;;;;23.25;9.82;;;12.60;99.90;;;;;;6243984;23;20344;-81
2022/10/04 01:16:19;;;;;;;23.52;10.93;;;12.70;99.90;;;;;;6185540;23;20035;-81
2022/10/04 01:18:46;;;;;;;19.80;9.82;;;12.60;99.90;;;;;;6217090;23;20461;-83
2022/10/04 01:21:20;;;;;;;19.65;9.57;;;12.60;99.90;;;;;;6244626;23;20031;-82
2022/10/04 01:24:14;;;;;;;28.85;10.45;;;12.60;99.90;;;;;;6216660;23;20024;-84
2022/10/04 01:26:42;;;;;;;22.95;10.57;;;12.60;99.90;;;;;;6243224;23;20850;-82
2022/10/04 01:29:09;;;;;;;25.83;11.00;;;12.60;99.90;;;;;;6216200;23;20051;-83
2022/10/04 01:31:39;;;;;;;23.75;10.95;;;12.60;99.90;;;;;;6244045;23;20453;-83
2022/10/04 01:34:06;;;;;;;20.83;9.70;;;12.60;99.90;;;;;;6243890;23;20095;-84
2022/10/04 01:36:33;;;;;;;20.40;10.10;;;12.60;99.90;;;;;;6218294;23;20016;-82
2022/10/04 01:39:00;;;;;;;26.27;10.02;;;12.60;99.90;;;;;;6244324;23;20411;-81
2022/10/04 01:41:37;;;;;;;20.70;9.95;;;12.60;99.90;;;;;;6216073;23;20031;-82
2022/10/04 01:44:06;;;;;;;19.45;9.80;;;12.60;99.90;;;;;;6191387;23;20365;-84
2022/10/04 01:46:35;;;;;;;20.77;9.90;;;12.60;99.90;;;;;;6216526;23;20472;-83
2022/10/04 01:49:06;;;;;;;31.17;10.63;;;12.60;99.90;;;;;;6216973;23;20122;-81
2022/10/04 01:51:54;;;;;;;22.17;9.88;;;12.60;99.90;;;;;;6191557;23;20024;-85
2022/10/04 01:54:38;;;;;;;19.33;9.57;;;12.60;99.90;;;;;;6219036;23;20031;-83
2022/10/04 01:57:06;;;;;;;38.13;10.82;;;12.60;99.90;;;;;;6244849;23;20016;-81
2022/10/04 02:00:09;;;;;;;19.67;9.57;;;12.60;99.90;;;;;;6216365;23;20021;-84
2022/10/04 02:02:53;;;;;;;24.70;10.75;;;12.60;99.90;;;;;;6206747;23;20035;-84
2022/10/04 02:05:32;;;;;;;21.50;9.93;;;12.50;99.90;;;;;;6243904;23;20377;-84
2022/10/04 02:08:07;;;;;;;28.17;9.98;;;12.50;99.90;;;;;;6243642;23;20016;-83
2022/10/04 02:10:37;;;;;;;21.85;9.98;;;12.50;99.90;;;;;;6245351;23;20028;-81
2022/10/04 02:13:12;;;;;;;27.27;10.23;;;12.50;99.90;;;;;;6218345;23;20112;-84
2022/10/04 02:15:38;;;;;;;23.75;9.75;;;12.50;99.90;;;;;;6243972;23;20055;-84
2022/10/04 02:18:17;;;;;;;24.45;10.65;;;12.40;99.90;;;;;;6221031;23;20083;-82
2022/10/04 02:20:45;;;;;;;25.30;9.57;;;12.40;99.90;;;;;;6252074;23;20080;-84
2022/10/04 02:23:12;;;;;;;26.77;11.05;;;12.40;99.90;;;;;;6222132;23;20055;-82
2022/10/04 02:25:38;;;;;;;28.42;11.65;;;12.40;99.90;;;;;;6171426;23;20020;-82
2022/10/04 02:28:09;;;;;;;21.00;9.38;;;12.30;99.90;;;;;;6250540;23;20087;-82
2022/10/04 02:30:38;;;;;;;20.98;9.73;;;12.30;99.90;;;;;;6223404;23;20353;-82
2022/10/04 02:33:04;;;;;;;16.55;8.57;;;12.30;99.90;;;;;;6219636;23;20024;-83
2022/10/04 02:35:45;;;;;;;23.20;9.98;;;12.30;99.90;;;;;;6243084;23;20099;-81
2022/10/04 02:38:30;;;;;;;19.35;8.95;;;12.30;99.90;;;;;;6215693;23;20450;-82
2022/10/04 02:41:15;;;;;;;20.33;8.57;;;12.20;99.90;;;;;;6244497;23;20031;-82
2022/10/04 02:43:52;;;;;;;21.75;8.88;;;12.30;99.90;;;;;;6252214;23;20106;-83
2022/10/04 02:46:32;;;;;;;19.98;9.23;;;12.30;99.90;;;;;;6217959;23;20020;-82
2022/10/04 02:49:03;;;;;;;22.65;10.02;;;12.20;99.90;;;;;;6245283;23;20040;-83
2022/10/04 02:51:37;;;;;;;26.40;10.48;;;12.20;99.90;;;;;;6244878;23;20166;-84
2022/10/04 02:54:13;;;;;;;19.23;10.93;;;12.10;99.90;;;;;;6194219;23;20032;-83
2022/10/04 02:56:40;;;;;;;26.48;9.68;;;12.10;99.90;;;;;;6193601;23;20024;-81
2022/10/04 02:59:07;;;;;;;21.27;10.98;;;12.00;99.90;;;;;;6218471;23;20031;-83
2022/10/04 03:01:48;;;;;;;20.05;11.88;;;12.00;99.90;;;;;;6244822;23;20020;-83
2022/10/04 03:04:15;;;;;;;23.00;11.80;;;12.00;99.90;;;;;;6218315;23;20098;-83
2022/10/04 03:06:44;;;;;;;24.63;12.65;;;11.90;99.90;;;;;;6245170;23;20099;-82
2022/10/04 03:09:11;;;;;;;21.63;11.27;;;11.90;99.90;;;;;;6217460;23;20028;-81
2022/10/04 03:11:41;;;;;;;24.65;12.07;;;11.80;99.90;;;;;;6245228;23;20471;-81
2022/10/04 03:14:12;;;;;;;18.73;11.40;;;11.80;99.90;;;;;;6245226;23;20012;-81
2022/10/04 03:16:42;;;;;;;30.60;11.35;;;11.80;99.90;;;;;;6217630;23;20554;-82
2022/10/04 03:19:10;;;;;;;24.95;12.18;;;11.80;99.90;;;;;;6244749;23;20023;-83
2022/10/04 03:21:38;;;;;;;30.00;12.70;;;11.80;99.90;;;;;;6245033;23;20027;-83
2022/10/04 03:24:05;;;;;;;28.63;12.65;;;11.80;99.90;;;;;;6219235;23;20028;-82
2022/10/04 03:26:45;;;;;;;27.80;13.52;;;11.70;99.90;;;;;;6221041;23;20328;-80
2022/10/04 03:29:13;;;;;;;24.23;12.52;;;11.70;99.90;;;;;;6217683;23;20020;-82
2022/10/04 03:31:47;;;;;;;25.73;12.27;;;11.70;99.90;;;;;;6217626;23;20043;-83
2022/10/04 03:34:20;;;;;;;24.27;12.43;;;11.70;99.90;;;;;;6244586;23;20031;-84
2022/10/04 03:36:48;;;;;;;33.58;12.18;;;11.70;99.90;;;;;;6217376;23;20028;-82
2022/10/04 03:39:37;;;;;;;26.77;13.40;;;11.70;99.90;;;;;;6192890;23;20028;-83
2022/10/04 03:42:30;;;;;;;23.95;12.10;;;11.70;99.90;;;;;;6220663;23;20082;-82
2022/10/04 03:45:00;;;;;;;23.63;12.55;;;11.70;99.90;;;;;;6215318;23;20032;-80
2022/10/04 03:47:36;;;;;;;23.67;12.23;;;11.70;99.90;;;;;;6244600;23;20487;-82
2022/10/04 03:50:12;;;;;;;24.42;11.45;;;11.70;99.90;;;;;;6244948;23;20016;-82
2022/10/04 03:52:43;;;;;;;29.35;13.18;;;11.70;99.90;;;;;;6244070;23;20067;-82
2022/10/04 03:55:13;;;;;;;24.67;14.27;;;11.60;99.90;;;;;;6217517;23;20182;-82
2022/10/04 03:57:40;;;;;;;27.98;13.55;;;11.60;99.90;;;;;;6246523;23;20137;-82
2022/10/04 04:00:06;;;;;;;24.17;11.90;;;11.60;99.90;;;;;;6219121;23;20035;-82
2022/10/04 04:02:40;;;;;;;25.92;14.30;;;11.60;99.90;;;;;;6218452;23;20016;-84
2022/10/04 04:05:11;;;;;;;27.10;13.27;;;11.60;99.90;;;;;;6218587;23;20024;-82
2022/10/04 04:07:40;;;;;;;26.48;13.35;;;11.60;99.90;;;;;;6245782;23;20054;-82
2022/10/04 04:10:29;;;;;;;25.15;13.18;;;11.60;99.90;;;;;;6218253;23;20111;-82
2022/10/04 04:13:24;;;;;;;25.85;13.02;;;11.60;99.90;;;;;;6217621;23;20356;-82
2022/10/04 04:15:50;;;;;;;28.55;14.63;;;11.50;99.90;;;;;;6218284;23;20024;-82
2022/10/04 04:18:20;;;;;;;28.98;14.13;;;11.50;99.90;;;;;;6217226;23;20028;-81
2022/10/04 04:20:48;;;;;;;34.28;14.88;;;11.50;99.90;;;;;;6246159;23;20024;-81
2022/10/04 04:23:14;;;;;;;29.33;13.90;;;11.50;99.90;;;;;;6247512;23;20062;-82
2022/10/04 04:25:46;;;;;;;29.35;15.73;;;11.50;99.90;;;;;;6217335;23;20031;-81
2022/10/04 04:28:15;;;;;;;34.38;15.27;;;11.50;99.90;;;;;;6244281;23;20333;-83
2022/10/04 04:30:48;;;;;;;36.63;16.15;;;11.50;99.90;;;;;;6219345;23;20420;-79
2022/10/04 04:33:25;;;;;;;33.88;15.82;;;11.50;99.90;;;;;;6217049;23;20020;-82
2022/10/04 04:36:02;;;;;;;25.50;14.90;;;11.40;99.90;;;;;;6216686;23;20111;-80
2022/10/04 04:38:27;;;;;;;27.05;15.73;;;11.40;99.90;;;;;;6216858;23;20658;-79
2022/10/04 04:40:54;;;;;;;27.98;15.90;;;11.40;99.90;;;;;;6216335;23;20054;-79
2022/10/04 04:43:23;;;;;;;36.22;16.17;;;11.30;99.90;;;;;;6217350;23;20095;-79
2022/10/04 04:45:50;;;;;;;30.75;16.58;;;11.30;99.90;;;;;;6217378;23;20103;-80
2022/10/04 04:48:17;;;;;;;30.40;15.70;;;11.30;99.90;;;;;;6217929;23;20449;-79
2022/10/04 04:50:52;;;;;;;28.35;16.20;;;11.20;99.90;;;;;;6216913;23;20016;-80
2022/10/04 04:53:21;;;;;;;;;;;11.20;99.90;;;;;;6244819;23;20455;-79
2022/10/04 04:55:59;;;;;;;30.75;15.98;;;11.10;99.90;;;;;;6243427;22;19930;-80
2022/10/04 04:58:35;;;;;;;35.08;14.60;;;11.10;99.90;;;;;;6216720;23;20026;-80
2022/10/04 05:01:03;;;;;;;30.27;15.60;;;11.10;99.90;;;;;;6243491;23;20024;-82
2022/10/04 05:03:30;;;;;;;34.30;16.15;;;11.10;99.90;;;;;;6245289;23;20035;-80
2022/10/04 05:05:57;;;;;;;29.25;16.23;;;11.10;99.90;;;;;;6243720;23;20059;-79
2022/10/04 05:08:28;;;;;;;24.58;14.02;;;11.00;99.90;;;;;;6216407;23;20456;-80
2022/10/04 05:11:04;;;;;;;34.95;16.63;;;11.00;99.90;;;;;;6244026;23;20031;-82
2022/10/04 05:13:40;;;;;;;28.80;14.50;;;11.00;99.90;;;;;;6244050;23;20024;-83
2022/10/04 05:16:18;;;;;;;25.65;14.77;;;11.00;99.90;;;;;;6243859;23;20016;-82
2022/10/04 05:18:45;;;;;;;27.00;15.73;;;10.90;99.90;;;;;;6218561;23;20140;-81
2022/10/04 05:21:22;;;;;;;27.52;15.90;;;10.90;99.90;;;;;;6243166;23;20021;-83
2022/10/04 05:23:48;;;;;;;37.38;15.73;;;10.90;99.90;;;;;;6243152;23;20356;-81
2022/10/04 05:26:25;;;;;;;29.80;16.67;;;10.90;99.90;;;;;;6243488;23;20454;-82
2022/10/04 05:28:52;;;;;;;25.52;16.20;;;10.90;99.90;;;;;;6243522;23;20434;-82
2022/10/04 05:31:26;;;;;;;29.92;17.67;;;10.90;99.90;;;;;;6243537;23;20024;-79
2022/10/04 05:33:56;;;;;;;28.35;16.40;;;10.90;99.90;;;;;;6244496;23;20734;-82
2022/10/04 05:36:45;;;;;;;25.92;15.63;;;10.90;99.90;;;;;;6216549;23;20519;-83
2022/10/04 05:39:28;;;;;;;38.88;17.75;;;10.90;99.90;;;;;;6243425;23;20031;-81
2022/10/04 05:42:00;;;;;;;30.20;16.92;;;10.90;99.90;;;;;;6243709;23;20027;-81
2022/10/04 05:44:36;;;;;;;31.15;17.17;;;10.90;99.90;;;;;;6243404;23;20740;-81
2022/10/04 05:47:06;;;;;;;37.85;17.27;;;10.90;99.90;;;;;;6243537;23;20024;-81
2022/10/04 05:49:56;;;;;;;32.10;15.70;;;10.90;99.90;;;;;;6217172;23;20023;-81
2022/10/04 05:52:39;;;;;;;30.40;16.42;;;10.90;99.90;;;;;;6235593;23;20060;-82
2022/10/04 05:55:25;;;;;;;31.20;16.95;;;10.90;99.90;;;;;;6243276;23;20449;-81
2022/10/04 05:58:03;;;;;;;31.67;15.82;;;10.80;99.90;;;;;;6243681;23;20020;-81
2022/10/04 06:00:42;;;;;;;28.17;16.00;;;10.80;99.90;;;;;;6216625;23;20448;-80
2022/10/04 06:03:17;;;;;;;29.60;15.98;;;10.80;99.90;;;;;;6192063;23;20456;-80
2022/10/04 06:05:52;;;;;;;;;;;10.80;99.90;;;;;;6218074;23;20062;-82
2022/10/04 06:08:33;;;;;;;;;;;10.80;99.90;;;;;;6216754;23;19915;-83
2022/10/04 06:11:28;;;;;;;31.85;15.45;;;10.80;99.90;;;;;;6216206;23;20018;-82
2022/10/04 06:14:08;;;;;;;24.58;16.52;;;10.80;99.90;;;;;;6229671;23;20047;-81
2022/10/04 06:17:17;;;;;;;28.40;17.15;;;10.80;99.90;;;;;;6242854;23;20020;-82
2022/10/04 06:19:43;;;;;;;28.45;16.45;;;10.80;99.90;;;;;;6243221;23;20515;-81
2022/10/04 06:22:16;;;;;;;27.55;17.02;;;10.80;99.90;;;;;;6243996;23;20024;-82
2022/10/04 06:24:47;;;;;;;32.05;16.48;;;10.80;99.90;;;;;;6216166;23;20016;-83
2022/10/04 06:27:39;;;;;;;28.75;16.75;;;10.80;99.90;;;;;;6243649;23;20024;-83
2022/10/04 06:30:12;;;;;;;31.27;17.85;;;10.90;99.90;;;;;;6242981;23;20528;-80
2022/10/04 06:33:43;;;;;;;34.58;17.77;;;10.90;99.90;;;;;;6243048;23;20032;-81
2022/10/04 06:36:25;;;;;;;32.35;16.98;;;11.00;99.90;;;;;;6211306;23;20027;-81
2022/10/04 06:39:05;;;;;;;29.52;15.27;;;11.00;99.90;;;;;;6240308;23;20078;-82
2022/10/04 06:41:53;;;;;;;25.30;15.70;;;11.10;99.90;;;;;;6216396;23;20330;-82
2022/10/04 06:44:47;;;;;;;25.92;16.08;;;11.20;99.90;;;;;;6216179;23;20024;-81
2022/10/04 06:47:28;;;;;;;27.42;14.90;;;11.20;99.90;;;;;;6162109;23;20033;-82
2022/10/04 06:50:21;;;;;;;23.35;15.23;;;11.30;99.90;;;;;;6243485;23;20345;-83
2022/10/04 06:53:19;;;;;;;29.50;14.85;;;11.30;99.90;;;;;;6191696;23;20028;-82
2022/10/04 06:56:04;;;;;;;25.48;15.38;;;11.40;99.90;;;;;;6243075;23;20028;-83
2022/10/04 06:58:49;;;;;;;28.60;14.77;;;11.50;99.90;;;;;;6242684;23;20026;-82
2022/10/04 07:01:36;;;;;;;23.23;14.65;;;11.60;99.90;;;;;;6243032;23;20024;-83
2022/10/04 07:04:26;;;;;;;28.65;15.50;;;11.60;99.90;;;;;;6216018;23;20118;-84
2022/10/04 07:10:22;;;;;;;21.65;15.75;;;11.70;99.90;;;;;;6235750;23;20031;-81
2022/10/04 07:13:15;;;;;;;25.60;14.40;;;11.70;99.90;;;;;;6243256;23;20326;-82
2022/10/04 07:16:04;;;;;;;24.30;14.57;;;11.90;99.90;;;;;;6209246;23;20027;-82
2022/10/04 07:18:42;;;;;;;27.05;16.02;;;12.10;99.90;;;;;;6215900;23;20044;-85
2022/10/04 07:21:11;;;;;;;29.52;15.63;;;12.30;99.90;;;;;;6215765;23;20103;-83
2022/10/04 07:24:02;;;;;;;21.23;13.93;;;12.30;99.90;;;;;;6242971;23;20021;-81
2022/10/04 07:26:43;;;;;;;27.10;15.38;;;12.40;99.90;;;;;;6243739;23;20024;-81
2022/10/04 07:29:32;;;;;;;25.15;14.82;;;12.50;99.90;;;;;;6217728;23;20082;-81
2022/10/04 07:32:04;;;;;;;28.90;15.40;;;12.50;99.90;;;;;;6218377;23;20059;-82
2022/10/04 07:34:51;;;;;;;22.10;14.85;;;12.50;99.90;;;;;;6218041;23;20380;-80
2022/10/04 07:37:20;;;;;;;23.73;14.27;;;12.50;99.90;;;;;;6218616;23;20028;-81
2022/10/04 07:40:05;;;;;;;26.58;15.68;;;12.50;99.90;;;;;;6218236;23;20398;-80
2022/10/04 07:42:36;;;;;;;26.50;16.17;;;12.50;99.90;;;;;;6244961;23;20387;-80
2022/10/04 07:45:19;;;;;;;25.25;14.10;;;12.50;99.90;;;;;;6217265;23;20028;-80
2022/10/04 07:47:45;;;;;;;24.95;13.93;;;12.50;99.90;;;;;;6244690;23;20062;-80
2022/10/04 07:50:55;;;;;;;25.63;14.27;;;12.50;99.90;;;;;;6244964;23;20082;-80
2022/10/04 07:53:26;;;;;;;20.55;13.75;;;12.40;99.90;;;;;;6215249;23;20016;-82
2022/10/04 07:56:10;;;;;;;26.00;14.55;;;12.40;99.90;;;;;;6246334;23;20083;-83
2022/10/04 07:58:48;;;;;;;31.73;15.40;;;12.30;99.90;;;;;;6217714;23;20035;-82
2022/10/04 08:01:26;;;;;;;24.83;14.88;;;12.30;99.90;;;;;;6217573;23;20027;-82
2022/10/04 08:04:04;;;;;;;24.95;15.05;;;12.20;99.90;;;;;;6244677;23;20020;-81
2022/10/04 08:06:55;;;;;;;23.48;15.32;;;12.20;99.90;;;;;;6217092;23;20035;-83
2022/10/04 08:09:44;;;;;;;24.55;15.27;;;12.20;99.90;;;;;;6217205;23;20047;-83
2022/10/04 08:12:18;;;;;;;23.63;14.45;;;12.40;99.90;;;;;;6217640;23;20095;-84
2022/10/04 08:14:51;;;;;;;23.67;14.15;;;12.40;99.90;;;;;;6224057;23;20020;-83
2022/10/04 08:17:23;;;;;;;23.42;14.48;;;12.50;99.90;;;;;;6246125;23;20016;-82
2022/10/04 08:19:57;;;;;;;25.40;14.43;;;12.60;99.90;;;;;;6247061;23;20027;-81
2022/10/04 08:22:40;;;;;;;27.00;13.80;;;12.70;99.90;;;;;;6221518;23;20112;-83
2022/10/04 08:25:27;;;;;;;24.40;13.23;;;12.80;99.90;;;;;;6221876;23;20031;-82
2022/10/04 08:31:16;;;;;;;26.80;12.25;;;13.10;99.90;;;;;;6218491;23;20047;-83
2022/10/04 08:33:41;;;;;;;;;;;13.20;99.90;;;;;;6192646;23;20028;-81
2022/10/04 08:36:16;;;;;;;22.35;12.48;;;13.30;99.90;;;;;;6244721;23;20025;-83
2022/10/04 08:38:56;;;;;;;25.45;13.02;;;13.40;99.90;;;;;;6244015;23;20020;-83
2022/10/04 08:41:28;;;;;;;21.88;12.70;;;13.50;99.90;;;;;;6244070;23;20340;-81
2022/10/04 08:44:22;;;;;;;24.38;11.02;;;13.60;99.90;;;;;;6244132;23;20028;-81
2022/10/04 08:46:53;;;;;;;22.25;10.00;;;13.70;99.90;;;;;;6247879;23;20379;-83
2022/10/04 08:49:51;;;;;;;20.92;9.40;;;13.80;99.90;;;;;;6192156;23;20103;-83
2022/10/04 08:52:36;;;;;;;21.60;9.10;;;13.90;99.90;;;;;;6216865;23;20036;-81
2022/10/04 08:55:33;;;;;;;14.40;8.18;;;14.00;99.90;;;;;;6191562;23;20056;-81
2022/10/04 08:58:31;;;;;;;19.58;9.88;;;14.10;99.90;;;;;;6192090;23;20031;-82
2022/10/04 09:01:15;;;;;;;18.02;8.10;;;14.30;99.90;;;;;;6222921;23;20031;-83
2022/10/04 09:04:19;;;;;;;19.10;8.85;;;14.30;99.90;;;;;;6243880;23;20027;-83
2022/10/04 09:06:58;;;;;;;16.13;9.40;;;14.40;99.90;;;;;;6216706;23;20468;-81
2022/10/04 09:10:00;;;;;;;19.02;9.20;;;14.60;99.90;;;;;;6244081;23;20020;-83
2022/10/04 09:12:39;;;;;;;20.70;10.48;;;14.70;99.90;;;;;;6243738;23;20322;-81
2022/10/04 09:15:11;;;;;;;18.35;9.45;;;14.80;99.90;;;;;;6243711;23;20078;-82
2022/10/04 09:17:54;;;;;;;15.20;9.32;;;14.90;99.90;;;;;;6245296;23;20031;-81
2022/10/04 09:20:21;;;;;;;20.30;9.63;;;15.00;99.90;;;;;;6243842;23;20031;-77
2022/10/04 09:23:15;;;;;;;17.63;10.48;;;15.00;99.90;;;;;;6243672;23;20341;-81
2022/10/04 12:37:12;;;;;;;8.40;4.90;;;21.40;99.20;;;;;;5129300;27;20439;-77
2022/10/04 12:39:38;;;;;;;8.00;5.15;;;21.70;98.50;;;;;;5129422;27;20100;-77
2022/10/04 12:42:23;;;;;;;9.20;5.05;;;21.90;98.00;;;;;;5127760;28;20055;-74
2022/10/04 12:45:44;;;;;;;8.75;4.90;;;21.90;97.40;;;;;;5110577;28;20082;-75
2022/10/04 12:48:37;;;;;;;7.22;4.57;;;21.90;97.20;;;;;;5039668;27;20132;-76
2022/10/04 12:51:21;;;;;;;8.40;4.68;;;22.20;96.80;;;;;;5129359;27;20043;-75
2022/10/04 12:54:05;;;;;;;8.00;4.10;;;22.20;96.10;;;;;;5129048;27;20062;-78
2022/10/04 12:56:44;;;;;;;9.65;4.20;;;22.70;97.00;;;;;;5129205;27;20043;-73
2022/10/04 12:59:16;;;;;;;8.63;4.78;;;23.80;96.00;;;;;;5128951;27;20499;-75
2022/10/04 13:01:56;;;;;;;8.02;4.60;;;24.60;94.80;;;;;;5129119;27;20047;-78
2022/10/04 13:04:37;;;;;;;8.85;4.88;;;24.70;94.10;;;;;;5129060;27;20499;-76
2022/10/04 13:07:15;;;;;;;10.80;4.45;;;25.10;92.20;;;;;;5127934;28;20047;-77
2022/10/04 13:10:12;;;;;;;8.57;4.68;;;26.10;92.30;;;;;;5127297;28;20599;-78
2022/10/04 13:12:59;;;;;;;6.68;4.30;;;26.80;91.30;;;;;;5128766;27;20134;-77
2022/10/04 13:15:38;;;;;;;10.10;4.97;;;26.30;90.00;;;;;;5129067;27;20059;-76
2022/10/04 13:18:54;;;;;;;8.18;4.68;;;26.60;89.50;;;;;;5110417;28;20051;-76
2022/10/04 13:21:39;;;;;;;;;;;26.50;87.60;;;;;;5116360;28;20062;-78
2022/10/04 13:24:24;;;;;;;;;;;26.30;88.00;;;;;;5128861;28;19971;-78
2022/10/04 13:27:16;;;;;;;8.30;4.15;;;26.10;87.00;;;;;;5126557;28;19923;-78
2022/10/04 13:30:05;;;;;;;9.65;4.75;;;26.00;89.80;;;;;;5124760;28;20129;-79
2022/10/04 13:32:51;;;;;;;11.75;4.47;;;25.30;87.70;;;;;;5128819;27;20058;-78
2022/10/04 13:35:37;;;;;;;9.15;4.47;;;25.20;89.50;;;;;;5128322;27;20067;-78
2022/10/04 13:38:26;;;;;;;7.57;4.25;;;24.60;88.70;;;;;;5127988;28;20051;-78
2022/10/04 13:41:06;;;;;;;9.25;4.68;;;24.50;90.40;;;;;;5127209;28;20043;-83
2022/10/04 13:43:51;;;;;;;7.03;3.65;;;23.80;90.80;;;;;;5126940;28;20090;-81
2022/10/04 13:46:38;;;;;;;6.88;3.67;;;23.70;91.10;;;;;;5123784;27;20052;-81
2022/10/04 13:49:23;;;;;;;9.60;4.28;;;24.20;91.30;;;;;;5112967;28;20051;-82
2022/10/04 13:57:55;;;;;;;9.15;4.22;;;24.10;91.30;;;;;;5115337;28;20055;-82
2022/10/04 14:00:30;;;;;;;8.63;3.90;;;23.90;91.10;;;;;;5113893;28;20054;-83
2022/10/04 14:02:59;;;;;;;7.47;3.58;;;23.30;91.60;;;;;;5112454;28;20808;-83
2022/10/04 14:06:02;;;;;;;11.25;3.88;;;22.70;92.90;;;;;;5112927;28;20131;-82
2022/10/04 14:08:35;;;;;;;7.32;3.90;;;22.10;93.70;;;;;;5095389;28;20309;-84
2022/10/04 14:11:20;;;;;;;8.70;3.70;;;21.10;95.30;;;;;;5113897;28;20054;-82
2022/10/04 14:14:32;;;;;;;7.07;3.88;;;20.70;96.00;;;;;;5113465;28;20082;-81
2022/10/04 14:17:10;;;;;;;8.43;3.80;;;20.40;96.90;;;;;;5110825;28;20559;-82
2022/10/04 14:20:00;;;;;;;7.00;3.90;;;20.20;97.90;;;;;;5112623;28;20126;-81
2022/10/04 14:22:57;;;;;;;6.53;4.07;;;20.20;98.00;;;;;;5112431;28;20044;-82
2022/10/04 14:26:07;;;;;;;7.68;3.53;;;20.00;98.10;;;;;;5095811;28;20376;-82
2022/10/04 14:28:44;;;;;;;10.43;4.30;;;20.00;98.30;;;;;;5097880;28;20055;-81
2022/10/04 14:31:22;;;;;;;9.65;4.15;;;20.00;98.50;;;;;;5095356;28;20044;-83
2022/10/04 14:34:14;;;;;;;7.78;3.70;;;19.90;98.70;;;;;;5095757;28;20063;-83
2022/10/04 14:37:19;;;;;;;14.02;5.32;;;19.70;99.30;;;;;;5102968;28;20465;-84
2022/10/04 14:39:57;;;;;;;8.87;4.43;;;19.50;99.70;;;;;;5114240;28;20089;-81
2022/10/04 14:42:42;;;;;;;10.13;4.72;;;19.50;99.90;;;;;;5111861;28;20062;-83
2022/10/04 14:45:28;;;;;;;10.18;4.72;;;19.60;99.80;;;;;;5113397;28;20067;-82
2022/10/04 14:48:31;;;;;;;10.25;4.50;;;19.40;99.90;;;;;;5094723;28;20148;-83
2022/10/04 14:51:22;;;;;;;9.90;5.10;;;19.30;99.90;;;;;;5113107;28;20079;-81
2022/10/04 14:54:29;;;;;;;8.23;4.13;;;19.00;99.90;;;;;;5113436;28;20051;-82
2022/10/04 14:57:26;;;;;;;10.32;4.88;;;18.70;99.90;;;;;;5111640;28;20079;-82
2022/10/04 15:00:19;;;;;;;7.90;3.55;;;18.50;99.90;;;;;;5095825;28;20051;-82
2022/10/04 15:03:27;;;;;;;9.95;3.70;;;18.30;99.90;;;;;;5111885;28;20059;-84
2022/10/04 15:05:59;;;;;;;12.13;3.88;;;18.10;99.90;;;;;;5102415;28;20055;-84
2022/10/04 15:09:07;;;;;;;26.95;4.45;;;18.10;99.90;;;;;;5112755;28;20056;-84
2022/10/04 15:12:00;;;;;;;6.72;3.85;;;18.10;99.90;;;;;;5111718;28;20055;-84
2022/10/04 15:14:35;;;;;;;11.18;5.20;;;18.00;99.90;;;;;;5111943;28;20071;-83
2022/10/04 15:17:09;;;;;;;8.57;3.85;;;18.00;99.90;;;;;;5112135;28;20058;-83
2022/10/04 15:19:57;;;;;;;10.38;4.22;;;18.10;99.90;;;;;;5113787;28;20039;-81
2022/10/04 15:22:40;;;;;;;9.23;4.07;;;18.20;99.90;;;;;;5095043;28;20067;-79
2022/10/04 15:25:43;;;;;;;6.95;3.60;;;18.50;99.90;;;;;;5113129;28;20066;-82
2022/10/04 15:28:40;;;;;;;10.70;5.28;;;18.50;99.90;;;;;;5114131;28;20113;-83
2022/10/04 15:31:24;;;;;;;8.23;3.97;;;18.30;99.90;;;;;;5113327;28;20054;-81
2022/10/04 15:34:27;;;;;;;9.47;4.20;;;18.10;99.90;;;;;;5112619;28;20146;-83
2022/10/04 15:37:06;;;;;;;9.65;4.40;;;17.90;99.90;;;;;;5112790;28;20075;-82
2022/10/04 15:40:04;;;;;;;10.60;4.38;;;17.80;99.90;;;;;;5108576;28;20498;-83
2022/10/04 15:42:40;;;;;;;10.88;3.80;;;17.70;99.90;;;;;;5093653;28;20157;-79
2022/10/04 15:45:17;;;;;;;10.68;4.13;;;17.70;99.90;;;;;;5112053;28;20083;-79
2022/10/04 15:47:55;;;;;;;12.50;4.68;;;17.70;99.90;;;;;;5110922;28;20074;-79
2022/10/04 15:50:41;;;;;;;12.02;4.93;;;17.60;99.90;;;;;;5110442;28;20047;-79
2022/10/04 15:53:19;;;;;;;10.43;5.10;;;17.50;99.90;;;;;;5112102;28;20039;-79
2022/10/04 15:55:54;;;;;;;11.52;5.20;;;17.40;99.90;;;;;;5112192;28;20063;-79
2022/10/04 15:58:33;;;;;;;12.30;5.70;;;17.40;99.90;;;;;;5114315;28;20059;-81
2022/10/04 16:01:37;;;;;;;17.80;6.25;;;17.20;99.90;;;;;;5110645;28;20066;-80
2022/10/04 16:04:12;;;;;;;17.10;6.47;;;17.10;99.90;;;;;;5111693;28;20410;-80
2022/10/04 16:06:45;;;;;;;12.63;5.60;;;17.10;99.90;;;;;;5112146;28;20103;-79
2022/10/04 16:09:12;;;;;;;12.15;6.32;;;17.00;99.90;;;;;;5112188;28;20047;-80
2022/10/04 16:11:59;;;;;;;14.52;6.60;;;16.90;99.90;;;;;;5111910;28;20093;-80
2022/10/04 16:14:44;;;;;;;13.27;6.53;;;16.90;99.90;;;;;;5112488;28;20477;-79
2022/10/04 16:17:10;;;;;;;14.68;6.95;;;16.80;99.90;;;;;;5112745;28;20162;-79
2022/10/04 16:20:00;;;;;;;14.40;6.13;;;16.80;99.90;;;;;;5110486;28;20131;-80
2022/10/04 16:22:32;;;;;;;14.77;6.75;;;16.80;99.90;;;;;;5111210;28;20048;-80
2022/10/04 16:25:23;;;;;;;13.57;6.97;;;16.70;99.90;;;;;;5112628;28;20051;-81
2022/10/04 16:27:56;;;;;;;15.50;7.53;;;16.70;99.90;;;;;;5112079;28;20107;-80
2022/10/04 16:30:42;;;;;;;19.23;7.55;;;16.60;99.90;;;;;;5112531;28;20047;-79
2022/10/04 16:33:50;;;;;;;17.42;8.40;;;16.60;99.90;;;;;;5112756;28;20050;-80
2022/10/04 16:36:22;;;;;;;18.27;8.50;;;16.50;99.90;;;;;;5100716;28;20052;-80
2022/10/04 16:41:43;;;;;;;16.02;8.77;;;16.50;99.90;;;;;;5111539;28;20052;-80
2022/10/04 16:44:45;;;;;;;16.17;8.10;;;16.40;99.90;;;;;;5109797;28;20062;-81
2022/10/04 16:47:32;;;;;;;19.17;9.05;;;16.40;99.90;;;;;;5109915;28;20058;-81
2022/10/04 16:50:00;;;;;;;19.63;9.05;;;16.30;99.90;;;;;;5076070;28;20051;-80
2022/10/04 16:53:16;;;;;;;20.75;8.80;;;16.30;99.90;;;;;;5111573;28;20055;-81
2022/10/04 16:55:52;;;;;;;15.18;7.50;;;16.30;99.90;;;;;;5111353;28;20081;-81
2022/10/04 16:58:26;;;;;;;14.95;6.82;;;16.20;99.90;;;;;;5111145;28;20069;-81
2022/10/04 17:01:27;;;;;;;13.00;7.10;;;16.10;99.90;;;;;;5109441;28;20059;-81
2022/10/04 17:04:02;;;;;;;15.27;5.95;;;16.10;99.90;;;;;;5111204;28;20134;-81
2022/10/04 17:06:46;;;;;;;14.00;6.43;;;16.10;99.90;;;;;;5109826;28;20056;-80
2022/10/04 17:09:27;;;;;;;17.13;5.75;;;16.00;99.90;;;;;;5110768;28;20055;-80
2022/10/04 17:12:13;;;;;;;13.00;6.50;;;16.00;99.90;;;;;;5111139;28;20105;-81
2022/10/04 17:15:13;;;;;;;11.55;5.55;;;16.00;99.90;;;;;;5110701;28;20053;-80
2022/10/04 17:18:04;;;;;;;11.13;5.53;;;15.90;99.90;;;;;;5111101;28;20484;-80
2022/10/04 17:20:39;;;;;;;10.60;5.20;;;15.90;99.90;;;;;;5110170;28;20504;-79
2022/10/04 17:23:27;;;;;;;15.27;6.45;;;15.90;99.90;;;;;;5113938;28;20101;-80
2022/10/04 17:26:12;;;;;;;12.85;5.75;;;15.80;99.90;;;;;;5113349;28;20067;-80
2022/10/04 17:28:55;;;;;;;18.08;6.93;;;15.90;99.90;;;;;;5113581;28;20051;-80
2022/10/04 17:31:46;;;;;;;14.52;7.25;;;15.90;99.90;;;;;;5113214;28;20193;-81
2022/10/04 17:34:12;;;;;;;17.27;8.65;;;15.80;99.90;;;;;;5114645;28;20066;-81
2022/10/04 17:36:40;;;;;;;17.60;9.20;;;15.70;99.90;;;;;;5112758;28;20513;-81
2022/10/04 17:39:46;;;;;;;22.80;10.18;;;15.70;99.90;;;;;;5114339;28;20196;-80
2022/10/04 17:42:23;;;;;;;22.15;10.65;;;15.70;99.90;;;;;;5114139;28;20066;-78
2022/10/04 17:44:49;;;;;;;22.60;11.05;;;15.70;99.90;;;;;;5114569;28;20047;-80
2022/10/04 17:55:14;;;;;;;19.08;11.38;;;15.70;99.90;;;;;;5114341;28;20058;-80